sensor_id;sensor_type;location;lat;lon;timestamp;P1;durP1;ratioP1;P2;durP2;ratioP2
42096;SDS011;27754;45.414;11.084;2024-01-15T00:01:48;111.60;;;63.88;;
42096;SDS011;27754;45.414;11.084;2024-01-15T00:04:15;109.18;;;63.72;;
42096;SDS011;27754;45.414;11.084;2024-01-15T00:06:42;105.43;;;61.58;;
42096;SDS011;27754;45.414;11.084;2024-01-15T00:09:09;106.50;;;64.28;;
42096;SDS011;27754;45.414;11.084;2024-01-15T00:11:36;108.70;;;64.22;;
42096;SDS011;27754;45.414;11.084;2024-01-15T00:14:03;110.22;;;62.65;;
42096;SDS011;27754;45.414;11.084;2024-01-15T00:16:30;108.68;;;64.20;;
42096;SDS011;27754;45.414;11.084;2024-01-15T00:18:57;110.13;;;65.50;;
42096;SDS011;27754;45.414;11.084;2024-01-15T00:21:25;106.63;;;62.38;;
42096;SDS011;27754;45.414;11.084;2024-01-15T00:23:52;111.43;;;65.15;;
42096;SDS011;27754;45.414;11.084;2024-01-15T00:26:19;112.07;;;64.35;;
42096;SDS011;27754;45.414;11.084;2024-01-15T00:28:46;111.95;;;64.03;;
42096;SDS011;27754;45.414;11.084;2024-01-15T00:31:15;106.38;;;62.53;;
42096;SDS011;27754;45.414;11.084;2024-01-15T00:33:43;103.05;;;60.15;;
42096;SDS011;27754;45.414;11.084;2024-01-15T00:36:11;105.80;;;61.72;;
42096;SDS011;27754;45.414;11.084;2024-01-15T00:38:38;107.60;;;62.10;;
42096;SDS011;27754;45.414;11.084;2024-01-15T00:41:05;107.68;;;62.75;;
42096;SDS011;27754;45.414;11.084;2024-01-15T00:43:32;105.00;;;61.50;;
42096;SDS011;27754;45.414;11.084;2024-01-15T00:46:01;96.38;;;57.60;;
42096;SDS011;27754;45.414;11.084;2024-01-15T00:48:29;97.00;;;58.65;;
42096;SDS011;27754;45.414;11.084;2024-01-15T00:50:56;105.25;;;61.17;;
42096;SDS011;27754;45.414;11.084;2024-01-15T00:53:23;108.20;;;60.65;;
42096;SDS011;27754;45.414;11.084;2024-01-15T00:55:50;105.80;;;61.53;;
42096;SDS011;27754;45.414;11.084;2024-01-15T00:58:18;109.20;;;64.13;;
42096;SDS011;27754;45.414;11.084;2024-01-15T01:00:45;109.32;;;62.50;;
42096;SDS011;27754;45.414;11.084;2024-01-15T01:03:12;114.57;;;66.88;;
42096;SDS011;27754;45.414;11.084;2024-01-15T01:05:39;113.13;;;63.28;;
42096;SDS011;27754;45.414;11.084;2024-01-15T01:08:06;111.18;;;64.90;;
42096;SDS011;27754;45.414;11.084;2024-01-15T01:10:33;105.80;;;61.03;;
42096;SDS011;27754;45.414;11.084;2024-01-15T01:13:00;109.70;;;64.20;;
42096;SDS011;27754;45.414;11.084;2024-01-15T01:15:27;109.60;;;63.40;;
42096;SDS011;27754;45.414;11.084;2024-01-15T01:17:55;109.53;;;62.33;;
42096;SDS011;27754;45.414;11.084;2024-01-15T01:20:22;100.28;;;60.85;;
42096;SDS011;27754;45.414;11.084;2024-01-15T01:22:49;109.35;;;64.93;;
42096;SDS011;27754;45.414;11.084;2024-01-15T01:25:16;110.50;;;66.20;;
42096;SDS011;27754;45.414;11.084;2024-01-15T01:27:43;106.32;;;64.97;;
42096;SDS011;27754;45.414;11.084;2024-01-15T01:30:10;107.80;;;64.07;;
42096;SDS011;27754;45.414;11.084;2024-01-15T01:32:37;108.70;;;62.15;;
42096;SDS011;27754;45.414;11.084;2024-01-15T01:35:04;111.45;;;64.63;;
42096;SDS011;27754;45.414;11.084;2024-01-15T01:37:32;112.03;;;64.38;;
42096;SDS011;27754;45.414;11.084;2024-01-15T01:40:00;113.75;;;65.80;;
42096;SDS011;27754;45.414;11.084;2024-01-15T01:42:27;117.03;;;65.25;;
42096;SDS011;27754;45.414;11.084;2024-01-15T01:44:54;109.20;;;64.30;;
42096;SDS011;27754;45.414;11.084;2024-01-15T01:47:21;112.18;;;64.75;;
42096;SDS011;27754;45.414;11.084;2024-01-15T01:49:48;108.05;;;63.10;;
42096;SDS011;27754;45.414;11.084;2024-01-15T01:52:15;106.80;;;63.85;;
42096;SDS011;27754;45.414;11.084;2024-01-15T01:54:42;114.80;;;65.38;;
42096;SDS011;27754;45.414;11.084;2024-01-15T01:57:09;110.03;;;65.40;;
42096;SDS011;27754;45.414;11.084;2024-01-15T01:59:38;115.88;;;64.88;;
42096;SDS011;27754;45.414;11.084;2024-01-15T02:02:05;114.68;;;67.00;;
42096;SDS011;27754;45.414;11.084;2024-01-15T02:04:32;107.85;;;62.60;;
42096;SDS011;27754;45.414;11.084;2024-01-15T02:07:00;109.13;;;64.18;;
42096;SDS011;27754;45.414;11.084;2024-01-15T02:09:27;106.65;;;63.75;;
42096;SDS011;27754;45.414;11.084;2024-01-15T02:11:54;105.47;;;63.10;;
42096;SDS011;27754;45.414;11.084;2024-01-15T02:14:22;105.85;;;64.22;;
42096;SDS011;27754;45.414;11.084;2024-01-15T02:16:49;114.25;;;64.38;;
42096;SDS011;27754;45.414;11.084;2024-01-15T02:19:16;111.72;;;65.55;;
42096;SDS011;27754;45.414;11.084;2024-01-15T02:21:44;108.30;;;64.45;;
42096;SDS011;27754;45.414;11.084;2024-01-15T02:24:11;110.70;;;65.43;;
42096;SDS011;27754;45.414;11.084;2024-01-15T02:26:38;107.00;;;61.85;;
42096;SDS011;27754;45.414;11.084;2024-01-15T02:29:06;107.38;;;64.57;;
42096;SDS011;27754;45.414;11.084;2024-01-15T02:31:37;99.72;;;60.33;;
42096;SDS011;27754;45.414;11.084;2024-01-15T02:34:04;103.85;;;63.60;;
42096;SDS011;27754;45.414;11.084;2024-01-15T02:36:31;105.97;;;61.33;;
42096;SDS011;27754;45.414;11.084;2024-01-15T02:38:59;103.40;;;59.83;;
42096;SDS011;27754;45.414;11.084;2024-01-15T02:41:26;104.53;;;59.28;;
42096;SDS011;27754;45.414;11.084;2024-01-15T02:43:52;104.97;;;59.38;;
42096;SDS011;27754;45.414;11.084;2024-01-15T02:46:19;112.05;;;64.47;;
42096;SDS011;27754;45.414;11.084;2024-01-15T02:48:46;105.13;;;59.15;;
42096;SDS011;27754;45.414;11.084;2024-01-15T02:51:14;105.40;;;61.25;;
42096;SDS011;27754;45.414;11.084;2024-01-15T02:53:41;104.70;;;61.78;;
42096;SDS011;27754;45.414;11.084;2024-01-15T02:56:08;107.88;;;62.78;;
42096;SDS011;27754;45.414;11.084;2024-01-15T02:58:35;100.53;;;59.95;;
42096;SDS011;27754;45.414;11.084;2024-01-15T03:01:02;109.38;;;61.25;;
42096;SDS011;27754;45.414;11.084;2024-01-15T03:03:29;102.00;;;61.95;;
42096;SDS011;27754;45.414;11.084;2024-01-15T03:05:56;105.60;;;61.38;;
42096;SDS011;27754;45.414;11.084;2024-01-15T03:08:23;109.38;;;61.65;;
42096;SDS011;27754;45.414;11.084;2024-01-15T03:10:50;110.53;;;65.63;;
42096;SDS011;27754;45.414;11.084;2024-01-15T03:13:17;112.13;;;62.53;;
42096;SDS011;27754;45.414;11.084;2024-01-15T03:15:45;104.38;;;61.15;;
42096;SDS011;27754;45.414;11.084;2024-01-15T03:18:12;106.45;;;63.45;;
42096;SDS011;27754;45.414;11.084;2024-01-15T03:20:40;104.90;;;63.47;;
42096;SDS011;27754;45.414;11.084;2024-01-15T03:23:07;105.68;;;60.08;;
42096;SDS011;27754;45.414;11.084;2024-01-15T03:25:33;106.10;;;59.15;;
42096;SDS011;27754;45.414;11.084;2024-01-15T03:28:00;106.60;;;60.20;;
42096;SDS011;27754;45.414;11.084;2024-01-15T03:30:27;98.10;;;57.78;;
42096;SDS011;27754;45.414;11.084;2024-01-15T03:32:55;93.90;;;57.15;;
42096;SDS011;27754;45.414;11.084;2024-01-15T03:35:22;98.85;;;58.42;;
42096;SDS011;27754;45.414;11.084;2024-01-15T03:37:49;104.70;;;59.17;;
42096;SDS011;27754;45.414;11.084;2024-01-15T03:40:16;103.43;;;59.70;;
42096;SDS011;27754;45.414;11.084;2024-01-15T03:42:48;109.20;;;62.05;;
42096;SDS011;27754;45.414;11.084;2024-01-15T03:45:15;103.20;;;60.85;;
42096;SDS011;27754;45.414;11.084;2024-01-15T03:47:42;103.13;;;61.40;;
42096;SDS011;27754;45.414;11.084;2024-01-15T03:50:09;106.15;;;61.78;;
42096;SDS011;27754;45.414;11.084;2024-01-15T03:52:36;105.95;;;62.47;;
42096;SDS011;27754;45.414;11.084;2024-01-15T03:55:04;111.55;;;61.67;;
42096;SDS011;27754;45.414;11.084;2024-01-15T03:57:32;107.95;;;61.47;;
42096;SDS011;27754;45.414;11.084;2024-01-15T03:59:59;105.20;;;60.30;;
42096;SDS011;27754;45.414;11.084;2024-01-15T04:02:26;101.43;;;59.95;;
42096;SDS011;27754;45.414;11.084;2024-01-15T04:04:52;112.43;;;63.08;;
42096;SDS011;27754;45.414;11.084;2024-01-15T04:07:20;107.22;;;63.03;;
42096;SDS011;27754;45.414;11.084;2024-01-15T04:09:47;111.90;;;66.13;;
42096;SDS011;27754;45.414;11.084;2024-01-15T04:12:14;107.05;;;62.70;;
42096;SDS011;27754;45.414;11.084;2024-01-15T04:14:41;108.80;;;62.65;;
42096;SDS011;27754;45.414;11.084;2024-01-15T04:17:08;104.45;;;62.75;;
42096;SDS011;27754;45.414;11.084;2024-01-15T04:19:35;106.15;;;62.40;;
42096;SDS011;27754;45.414;11.084;2024-01-15T04:22:02;108.60;;;63.47;;
42096;SDS011;27754;45.414;11.084;2024-01-15T04:24:31;106.40;;;61.35;;
42096;SDS011;27754;45.414;11.084;2024-01-15T04:26:58;113.18;;;62.30;;
42096;SDS011;27754;45.414;11.084;2024-01-15T04:29:25;109.00;;;60.13;;
42096;SDS011;27754;45.414;11.084;2024-01-15T04:31:53;105.75;;;60.78;;
42096;SDS011;27754;45.414;11.084;2024-01-15T04:34:20;110.45;;;62.70;;
42096;SDS011;27754;45.414;11.084;2024-01-15T04:36:47;108.50;;;63.17;;
42096;SDS011;27754;45.414;11.084;2024-01-15T04:39:14;103.85;;;60.65;;
42096;SDS011;27754;45.414;11.084;2024-01-15T04:41:41;99.60;;;57.60;;
42096;SDS011;27754;45.414;11.084;2024-01-15T04:44:08;100.85;;;59.15;;
42096;SDS011;27754;45.414;11.084;2024-01-15T04:46:35;98.38;;;57.55;;
42096;SDS011;27754;45.414;11.084;2024-01-15T04:49:02;98.93;;;59.08;;
42096;SDS011;27754;45.414;11.084;2024-01-15T04:51:29;98.13;;;55.97;;
42096;SDS011;27754;45.414;11.084;2024-01-15T04:53:56;98.97;;;58.42;;
42096;SDS011;27754;45.414;11.084;2024-01-15T04:56:24;96.50;;;56.83;;
42096;SDS011;27754;45.414;11.084;2024-01-15T04:58:51;100.10;;;56.78;;
42096;SDS011;27754;45.414;11.084;2024-01-15T05:01:18;104.65;;;59.13;;
42096;SDS011;27754;45.414;11.084;2024-01-15T05:03:45;97.72;;;56.97;;
42096;SDS011;27754;45.414;11.084;2024-01-15T05:06:12;100.00;;;57.25;;
42096;SDS011;27754;45.414;11.084;2024-01-15T05:08:39;100.90;;;56.40;;
42096;SDS011;27754;45.414;11.084;2024-01-15T05:11:06;93.75;;;56.90;;
42096;SDS011;27754;45.414;11.084;2024-01-15T05:13:33;100.22;;;57.55;;
42096;SDS011;27754;45.414;11.084;2024-01-15T05:16:00;98.13;;;57.58;;
42096;SDS011;27754;45.414;11.084;2024-01-15T05:18:27;91.03;;;54.70;;
42096;SDS011;27754;45.414;11.084;2024-01-15T05:20:55;100.32;;;57.10;;
42096;SDS011;27754;45.414;11.084;2024-01-15T05:23:21;96.70;;;57.58;;
42096;SDS011;27754;45.414;11.084;2024-01-15T05:25:48;96.57;;;55.40;;
42096;SDS011;27754;45.414;11.084;2024-01-15T05:28:15;101.35;;;56.88;;
42096;SDS011;27754;45.414;11.084;2024-01-15T05:30:43;100.95;;;56.88;;
42096;SDS011;27754;45.414;11.084;2024-01-15T05:33:10;95.45;;;55.20;;
42096;SDS011;27754;45.414;11.084;2024-01-15T05:35:37;94.03;;;52.80;;
42096;SDS011;27754;45.414;11.084;2024-01-15T05:38:04;93.35;;;52.40;;
42096;SDS011;27754;45.414;11.084;2024-01-15T05:40:31;86.70;;;51.33;;
42096;SDS011;27754;45.414;11.084;2024-01-15T05:42:58;90.93;;;52.83;;
42096;SDS011;27754;45.414;11.084;2024-01-15T05:45:29;97.10;;;53.03;;
42096;SDS011;27754;45.414;11.084;2024-01-15T05:47:56;87.68;;;48.42;;
42096;SDS011;27754;45.414;11.084;2024-01-15T05:50:23;87.03;;;50.40;;
42096;SDS011;27754;45.414;11.084;2024-01-15T05:52:51;86.63;;;50.78;;
42096;SDS011;27754;45.414;11.084;2024-01-15T05:55:18;89.28;;;50.53;;
42096;SDS011;27754;45.414;11.084;2024-01-15T05:57:45;88.50;;;49.90;;
42096;SDS011;27754;45.414;11.084;2024-01-15T06:00:12;88.75;;;51.70;;
42096;SDS011;27754;45.414;11.084;2024-01-15T06:02:40;87.25;;;48.88;;
42096;SDS011;27754;45.414;11.084;2024-01-15T06:05:07;86.70;;;48.63;;
42096;SDS011;27754;45.414;11.084;2024-01-15T06:07:34;85.55;;;50.78;;
42096;SDS011;27754;45.414;11.084;2024-01-15T06:10:03;93.90;;;52.47;;
42096;SDS011;27754;45.414;11.084;2024-01-15T06:12:31;92.45;;;50.15;;
42096;SDS011;27754;45.414;11.084;2024-01-15T06:15:00;95.35;;;54.28;;
42096;SDS011;27754;45.414;11.084;2024-01-15T06:17:27;89.78;;;52.28;;
42096;SDS011;27754;45.414;11.084;2024-01-15T06:19:54;88.80;;;53.40;;
42096;SDS011;27754;45.414;11.084;2024-01-15T06:22:21;91.65;;;54.58;;
42096;SDS011;27754;45.414;11.084;2024-01-15T06:24:48;92.38;;;51.08;;
42096;SDS011;27754;45.414;11.084;2024-01-15T06:27:15;91.65;;;54.28;;
42096;SDS011;27754;45.414;11.084;2024-01-15T06:29:44;91.03;;;52.58;;
42096;SDS011;27754;45.414;11.084;2024-01-15T06:32:16;93.47;;;55.28;;
42096;SDS011;27754;45.414;11.084;2024-01-15T06:34:43;99.45;;;57.42;;
42096;SDS011;27754;45.414;11.084;2024-01-15T06:37:10;114.32;;;60.40;;
42096;SDS011;27754;45.414;11.084;2024-01-15T06:39:37;106.45;;;61.17;;
42096;SDS011;27754;45.414;11.084;2024-01-15T06:42:04;104.10;;;57.42;;
42096;SDS011;27754;45.414;11.084;2024-01-15T06:44:32;99.10;;;56.75;;
42096;SDS011;27754;45.414;11.084;2024-01-15T06:46:59;106.90;;;59.28;;
42096;SDS011;27754;45.414;11.084;2024-01-15T06:49:29;101.97;;;56.83;;
42096;SDS011;27754;45.414;11.084;2024-01-15T06:51:56;104.75;;;58.72;;
42096;SDS011;27754;45.414;11.084;2024-01-15T06:54:23;102.40;;;58.88;;
42096;SDS011;27754;45.414;11.084;2024-01-15T06:56:50;101.95;;;57.15;;
42096;SDS011;27754;45.414;11.084;2024-01-15T06:59:17;104.07;;;60.70;;
42096;SDS011;27754;45.414;11.084;2024-01-15T07:01:45;104.32;;;59.88;;
42096;SDS011;27754;45.414;11.084;2024-01-15T07:04:13;102.70;;;59.65;;
42096;SDS011;27754;45.414;11.084;2024-01-15T07:06:40;103.22;;;59.13;;
42096;SDS011;27754;45.414;11.084;2024-01-15T07:09:07;87.72;;;52.28;;
42096;SDS011;27754;45.414;11.084;2024-01-15T07:11:35;86.40;;;51.92;;
42096;SDS011;27754;45.414;11.084;2024-01-15T07:14:02;88.65;;;52.15;;
42096;SDS011;27754;45.414;11.084;2024-01-15T07:16:29;82.50;;;49.30;;
42096;SDS011;27754;45.414;11.084;2024-01-15T07:19:04;85.68;;;50.80;;
42096;SDS011;27754;45.414;11.084;2024-01-15T07:21:31;98.03;;;53.72;;
42096;SDS011;27754;45.414;11.084;2024-01-15T07:23:58;97.90;;;51.83;;
42096;SDS011;27754;45.414;11.084;2024-01-15T07:26:25;87.13;;;49.85;;
42096;SDS011;27754;45.414;11.084;2024-01-15T07:28:52;88.88;;;52.60;;
42096;SDS011;27754;45.414;11.084;2024-01-15T07:31:19;93.63;;;53.53;;
42096;SDS011;27754;45.414;11.084;2024-01-15T07:33:46;88.78;;;51.10;;
42096;SDS011;27754;45.414;11.084;2024-01-15T07:36:14;89.72;;;53.53;;
42096;SDS011;27754;45.414;11.084;2024-01-15T07:38:41;90.10;;;51.95;;
42096;SDS011;27754;45.414;11.084;2024-01-15T07:41:09;86.72;;;51.40;;
42096;SDS011;27754;45.414;11.084;2024-01-15T07:43:36;86.53;;;50.75;;
42096;SDS011;27754;45.414;11.084;2024-01-15T07:46:04;88.57;;;49.33;;
42096;SDS011;27754;45.414;11.084;2024-01-15T07:48:31;85.65;;;51.97;;
42096;SDS011;27754;45.414;11.084;2024-01-15T07:50:58;79.97;;;46.85;;
42096;SDS011;27754;45.414;11.084;2024-01-15T07:53:25;89.35;;;49.35;;
42096;SDS011;27754;45.414;11.084;2024-01-15T07:55:52;84.68;;;47.53;;
42096;SDS011;27754;45.414;11.084;2024-01-15T07:58:19;87.70;;;49.13;;
42096;SDS011;27754;45.414;11.084;2024-01-15T08:00:46;77.82;;;46.75;;
42096;SDS011;27754;45.414;11.084;2024-01-15T08:03:13;73.35;;;42.30;;
42096;SDS011;27754;45.414;11.084;2024-01-15T08:05:41;68.75;;;39.63;;
42096;SDS011;27754;45.414;11.084;2024-01-15T08:08:08;66.78;;;38.70;;
42096;SDS011;27754;45.414;11.084;2024-01-15T08:10:36;68.30;;;40.10;;
42096;SDS011;27754;45.414;11.084;2024-01-15T08:13:03;71.65;;;39.13;;
42096;SDS011;27754;45.414;11.084;2024-01-15T08:15:30;64.82;;;37.38;;
42096;SDS011;27754;45.414;11.084;2024-01-15T08:17:57;70.25;;;41.20;;
42096;SDS011;27754;45.414;11.084;2024-01-15T08:20:25;70.20;;;39.20;;
42096;SDS011;27754;45.414;11.084;2024-01-15T08:22:53;65.57;;;38.17;;
42096;SDS011;27754;45.414;11.084;2024-01-15T08:25:20;73.72;;;40.20;;
42096;SDS011;27754;45.414;11.084;2024-01-15T08:27:47;70.57;;;38.20;;
42096;SDS011;27754;45.414;11.084;2024-01-15T08:30:14;72.05;;;41.33;;
42096;SDS011;27754;45.414;11.084;2024-01-15T08:32:41;70.65;;;41.35;;
42096;SDS011;27754;45.414;11.084;2024-01-15T08:35:09;82.80;;;44.17;;
42096;SDS011;27754;45.414;11.084;2024-01-15T08:37:38;74.57;;;43.08;;
42096;SDS011;27754;45.414;11.084;2024-01-15T08:40:05;94.65;;;52.75;;
42096;SDS011;27754;45.414;11.084;2024-01-15T08:42:32;98.35;;;62.28;;
42096;SDS011;27754;45.414;11.084;2024-01-15T08:44:59;81.70;;;46.55;;
42096;SDS011;27754;45.414;11.084;2024-01-15T08:47:26;76.63;;;44.45;;
42096;SDS011;27754;45.414;11.084;2024-01-15T08:49:54;82.28;;;44.35;;
42096;SDS011;27754;45.414;11.084;2024-01-15T08:52:21;83.53;;;48.97;;
42096;SDS011;27754;45.414;11.084;2024-01-15T08:54:48;79.20;;;47.08;;
42096;SDS011;27754;45.414;11.084;2024-01-15T08:57:15;80.63;;;46.85;;
42096;SDS011;27754;45.414;11.084;2024-01-15T08:59:42;84.47;;;47.38;;
42096;SDS011;27754;45.414;11.084;2024-01-15T09:02:09;82.72;;;47.58;;
42096;SDS011;27754;45.414;11.084;2024-01-15T09:04:36;82.53;;;48.47;;
42096;SDS011;27754;45.414;11.084;2024-01-15T09:07:03;85.63;;;48.42;;
42096;SDS011;27754;45.414;11.084;2024-01-15T09:09:30;86.45;;;48.47;;
42096;SDS011;27754;45.414;11.084;2024-01-15T09:11:57;82.30;;;47.88;;
42096;SDS011;27754;45.414;11.084;2024-01-15T09:14:24;81.47;;;47.50;;
42096;SDS011;27754;45.414;11.084;2024-01-15T09:17:03;78.63;;;46.63;;
42096;SDS011;27754;45.414;11.084;2024-01-15T09:19:31;74.50;;;44.40;;
42096;SDS011;27754;45.414;11.084;2024-01-15T09:21:59;81.13;;;48.00;;
42096;SDS011;27754;45.414;11.084;2024-01-15T09:24:26;78.82;;;47.35;;
42096;SDS011;27754;45.414;11.084;2024-01-15T09:26:55;77.90;;;47.30;;
42096;SDS011;27754;45.414;11.084;2024-01-15T09:29:22;69.50;;;41.15;;
42096;SDS011;27754;45.414;11.084;2024-01-15T09:31:50;76.32;;;43.03;;
42096;SDS011;27754;45.414;11.084;2024-01-15T09:34:18;67.47;;;42.08;;
42096;SDS011;27754;45.414;11.084;2024-01-15T09:36:46;72.50;;;41.97;;
42096;SDS011;27754;45.414;11.084;2024-01-15T09:39:14;71.85;;;40.28;;
42096;SDS011;27754;45.414;11.084;2024-01-15T09:41:42;69.32;;;41.88;;
42096;SDS011;27754;45.414;11.084;2024-01-15T09:44:10;70.63;;;42.15;;
42096;SDS011;27754;45.414;11.084;2024-01-15T09:46:38;70.63;;;43.00;;
42096;SDS011;27754;45.414;11.084;2024-01-15T09:49:06;76.50;;;44.58;;
42096;SDS011;27754;45.414;11.084;2024-01-15T09:51:34;75.60;;;47.05;;
42096;SDS011;27754;45.414;11.084;2024-01-15T09:54:02;70.30;;;43.28;;
42096;SDS011;27754;45.414;11.084;2024-01-15T09:56:30;68.03;;;42.03;;
42096;SDS011;27754;45.414;11.084;2024-01-15T09:58:57;69.57;;;42.85;;
42096;SDS011;27754;45.414;11.084;2024-01-15T10:01:24;75.78;;;43.13;;
42096;SDS011;27754;45.414;11.084;2024-01-15T10:03:52;70.35;;;42.60;;
42096;SDS011;27754;45.414;11.084;2024-01-15T10:06:22;76.65;;;43.88;;
42096;SDS011;27754;45.414;11.084;2024-01-15T10:08:50;77.05;;;45.13;;
42096;SDS011;27754;45.414;11.084;2024-01-15T10:11:18;77.70;;;46.92;;
42096;SDS011;27754;45.414;11.084;2024-01-15T10:13:45;78.93;;;48.10;;
42096;SDS011;27754;45.414;11.084;2024-01-15T10:16:23;78.00;;;46.42;;
42096;SDS011;27754;45.414;11.084;2024-01-15T10:18:50;76.72;;;47.38;;
42096;SDS011;27754;45.414;11.084;2024-01-15T10:21:18;77.82;;;46.42;;
42096;SDS011;27754;45.414;11.084;2024-01-15T10:23:45;85.90;;;49.40;;
42096;SDS011;27754;45.414;11.084;2024-01-15T10:26:13;85.00;;;50.20;;
42096;SDS011;27754;45.414;11.084;2024-01-15T10:28:44;85.70;;;51.15;;
42096;SDS011;27754;45.414;11.084;2024-01-15T10:31:11;89.85;;;51.25;;
42096;SDS011;27754;45.414;11.084;2024-01-15T10:33:38;91.07;;;54.17;;
42096;SDS011;27754;45.414;11.084;2024-01-15T10:36:06;98.57;;;58.67;;
42096;SDS011;27754;45.414;11.084;2024-01-15T10:38:37;95.28;;;56.63;;
42096;SDS011;27754;45.414;11.084;2024-01-15T10:41:04;95.53;;;57.78;;
42096;SDS011;27754;45.414;11.084;2024-01-15T10:43:31;95.40;;;58.00;;
42096;SDS011;27754;45.414;11.084;2024-01-15T10:45:58;96.13;;;56.97;;
42096;SDS011;27754;45.414;11.084;2024-01-15T10:48:26;91.10;;;55.72;;
42096;SDS011;27754;45.414;11.084;2024-01-15T10:50:55;93.93;;;56.78;;
42096;SDS011;27754;45.414;11.084;2024-01-15T10:53:23;93.40;;;53.95;;
42096;SDS011;27754;45.414;11.084;2024-01-15T10:55:51;92.32;;;56.90;;
42096;SDS011;27754;45.414;11.084;2024-01-15T10:58:19;94.47;;;56.13;;
42096;SDS011;27754;45.414;11.084;2024-01-15T11:00:47;91.10;;;55.75;;
42096;SDS011;27754;45.414;11.084;2024-01-15T11:03:14;90.95;;;55.70;;
42096;SDS011;27754;45.414;11.084;2024-01-15T11:05:43;102.05;;;65.45;;
42096;SDS011;27754;45.414;11.084;2024-01-15T11:08:10;91.03;;;54.78;;
42096;SDS011;27754;45.414;11.084;2024-01-15T11:10:41;88.90;;;52.67;;
42096;SDS011;27754;45.414;11.084;2024-01-15T11:13:09;88.05;;;53.83;;
42096;SDS011;27754;45.414;11.084;2024-01-15T11:18:30;127.57;;;67.80;;
42096;SDS011;27754;45.414;11.084;2024-01-15T11:23:49;87.10;;;55.35;;
42096;SDS011;27754;45.414;11.084;2024-01-15T11:29:07;88.75;;;51.35;;
42096;SDS011;27754;45.414;11.084;2024-01-15T11:34:15;89.82;;;55.08;;
42096;SDS011;27754;45.414;11.084;2024-01-15T11:42:01;84.75;;;51.60;;
42096;SDS011;27754;45.414;11.084;2024-01-15T11:44:30;89.30;;;51.80;;
42096;SDS011;27754;45.414;11.084;2024-01-15T11:47:00;85.32;;;52.42;;
42096;SDS011;27754;45.414;11.084;2024-01-15T11:52:20;81.10;;;50.67;;
42096;SDS011;27754;45.414;11.084;2024-01-15T11:55:00;86.50;;;52.80;;
42096;SDS011;27754;45.414;11.084;2024-01-15T11:57:48;82.05;;;50.70;;
42096;SDS011;27754;45.414;11.084;2024-01-15T12:00:18;83.63;;;51.70;;
42096;SDS011;27754;45.414;11.084;2024-01-15T12:02:46;82.90;;;53.67;;
42096;SDS011;27754;45.414;11.084;2024-01-15T12:05:17;83.63;;;52.15;;
42096;SDS011;27754;45.414;11.084;2024-01-15T12:07:47;79.78;;;50.25;;
42096;SDS011;27754;45.414;11.084;2024-01-15T12:15:24;78.88;;;50.45;;
42096;SDS011;27754;45.414;11.084;2024-01-15T12:17:52;82.13;;;51.80;;
42096;SDS011;27754;45.414;11.084;2024-01-15T12:20:21;85.45;;;51.42;;
42096;SDS011;27754;45.414;11.084;2024-01-15T12:22:49;74.50;;;50.25;;
42096;SDS011;27754;45.414;11.084;2024-01-15T12:25:27;78.95;;;49.63;;
42096;SDS011;27754;45.414;11.084;2024-01-15T12:27:55;84.60;;;49.63;;
42096;SDS011;27754;45.414;11.084;2024-01-15T12:30:23;84.35;;;51.42;;
42096;SDS011;27754;45.414;11.084;2024-01-15T12:32:50;79.07;;;50.10;;
42096;SDS011;27754;45.414;11.084;2024-01-15T12:35:17;81.22;;;52.05;;
42096;SDS011;27754;45.414;11.084;2024-01-15T12:37:45;82.68;;;51.67;;
42096;SDS011;27754;45.414;11.084;2024-01-15T12:40:18;77.00;;;50.25;;
42096;SDS011;27754;45.414;11.084;2024-01-15T12:42:46;83.57;;;51.38;;
42096;SDS011;27754;45.414;11.084;2024-01-15T12:45:13;82.75;;;52.20;;
42096;SDS011;27754;45.414;11.084;2024-01-15T12:47:41;82.78;;;52.38;;
42096;SDS011;27754;45.414;11.084;2024-01-15T12:50:09;85.47;;;52.75;;
42096;SDS011;27754;45.414;11.084;2024-01-15T12:52:45;82.20;;;51.00;;
42096;SDS011;27754;45.414;11.084;2024-01-15T12:55:13;79.57;;;50.53;;
42096;SDS011;27754;45.414;11.084;2024-01-15T12:57:41;77.68;;;50.10;;
42096;SDS011;27754;45.414;11.084;2024-01-15T13:00:08;75.93;;;48.60;;
42096;SDS011;27754;45.414;11.084;2024-01-15T13:02:40;76.90;;;49.95;;
42096;SDS011;27754;45.414;11.084;2024-01-15T13:05:09;76.43;;;50.08;;
42096;SDS011;27754;45.414;11.084;2024-01-15T13:07:39;76.07;;;48.28;;
42096;SDS011;27754;45.414;11.084;2024-01-15T13:10:06;75.50;;;49.13;;
42096;SDS011;27754;45.414;11.084;2024-01-15T13:12:36;79.60;;;50.35;;
42096;SDS011;27754;45.414;11.084;2024-01-15T13:15:05;78.22;;;50.50;;
42096;SDS011;27754;45.414;11.084;2024-01-15T13:17:36;76.63;;;47.10;;
42096;SDS011;27754;45.414;11.084;2024-01-15T13:20:03;77.82;;;49.35;;
42096;SDS011;27754;45.414;11.084;2024-01-15T13:22:30;83.05;;;52.72;;
42096;SDS011;27754;45.414;11.084;2024-01-15T13:24:59;83.97;;;53.15;;
42096;SDS011;27754;45.414;11.084;2024-01-15T13:27:27;82.40;;;50.03;;
42096;SDS011;27754;45.414;11.084;2024-01-15T13:29:55;73.53;;;47.25;;
42096;SDS011;27754;45.414;11.084;2024-01-15T13:32:25;86.03;;;53.78;;
42096;SDS011;27754;45.414;11.084;2024-01-15T13:34:56;82.15;;;51.33;;
42096;SDS011;27754;45.414;11.084;2024-01-15T13:37:24;77.95;;;49.95;;
42096;SDS011;27754;45.414;11.084;2024-01-15T13:39:51;84.32;;;53.40;;
42096;SDS011;27754;45.414;11.084;2024-01-15T13:42:19;71.78;;;45.38;;
42096;SDS011;27754;45.414;11.084;2024-01-15T13:44:50;80.47;;;49.63;;
42096;SDS011;27754;45.414;11.084;2024-01-15T13:47:18;76.55;;;50.33;;
42096;SDS011;27754;45.414;11.084;2024-01-15T13:49:45;75.00;;;48.70;;
42096;SDS011;27754;45.414;11.084;2024-01-15T13:52:12;81.47;;;49.90;;
42096;SDS011;27754;45.414;11.084;2024-01-15T13:54:39;73.85;;;46.65;;
42096;SDS011;27754;45.414;11.084;2024-01-15T13:57:18;76.28;;;49.15;;
42096;SDS011;27754;45.414;11.084;2024-01-15T13:59:46;80.20;;;50.17;;
42096;SDS011;27754;45.414;11.084;2024-01-15T14:02:15;78.00;;;49.05;;
42096;SDS011;27754;45.414;11.084;2024-01-15T14:04:47;84.00;;;51.58;;
42096;SDS011;27754;45.414;11.084;2024-01-15T14:07:15;82.50;;;53.22;;
42096;SDS011;27754;45.414;11.084;2024-01-15T14:09:42;81.85;;;52.15;;
42096;SDS011;27754;45.414;11.084;2024-01-15T14:12:10;78.07;;;49.85;;
42096;SDS011;27754;45.414;11.084;2024-01-15T14:14:38;83.13;;;51.67;;
42096;SDS011;27754;45.414;11.084;2024-01-15T14:17:06;81.88;;;51.75;;
42096;SDS011;27754;45.414;11.084;2024-01-15T14:19:33;79.47;;;50.30;;
42096;SDS011;27754;45.414;11.084;2024-01-15T14:22:00;75.25;;;49.03;;
42096;SDS011;27754;45.414;11.084;2024-01-15T14:24:27;82.88;;;51.15;;
42096;SDS011;27754;45.414;11.084;2024-01-15T14:26:55;81.53;;;51.22;;
42096;SDS011;27754;45.414;11.084;2024-01-15T14:29:23;87.03;;;54.05;;
42096;SDS011;27754;45.414;11.084;2024-01-15T14:31:52;82.63;;;50.63;;